Terminal Aerodrome Forecast
Issued by NWS Cleveland, OH

Home | Current Version | Previous Version | Graphics & Text | Print | Product List | Glossary On
Versions: 1 2 3 4 5 6 7 8 9 10 11 12 13 14 15 16 17 18 19 20
000
FTUS41 KCLE 200100 AAA
TAFYNG
TAF AMD
KYNG 200107Z 2001/2024 13015G25KT 2SM -SHRA OVC035 WS010/14050KT
     FM200300 15025G35KT 3SM -SHRA BR OVC015 WS010/14050KT
      TEMPO 2003/2006 2SM -SHRA BR
     FM200900 19020G30KT P6SM OVC015
     FM201100 21012G25KT P6SM OVC015
     FM201400 22015G30KT P6SM OVC025
     FM201600 21015G25KT P6SM OVC035=

USA.gov is the U.S. government's official web portal to all federal, state and local government web resources and services.